Time;durP1;ratioP1;P1;durP2;ratioP2;P2;SDS_P1;SDS_P2;PMS_P1;PMS_P2;Temp;Humidity;BMP_temperature;BMP_pressure;BME280_temperature;BME280_humidity;BME280_pressure;Samples;Min_cycle;Max_cycle;Signal;HPM_P1;HPM_P2
2024/03/11 00:01:03;;;;;;;49.28;25.98;;;;;;;;;;5050530;28;20033;-56
2024/03/11 00:03:28;;;;;;;49.17;25.63;;;;;;;;;;5062052;28;20038;-55
2024/03/11 00:05:53;;;;;;;49.70;25.40;;;;;;;;;;5060347;28;20044;-56
2024/03/11 00:08:21;;;;;;;53.67;26.25;;;;;;;;;;5056513;28;20036;-56
2024/03/11 00:10:48;;;;;;;48.13;25.63;;;;;;;;;;5054001;28;20064;-59
2024/03/11 00:13:16;;;;;;;53.70;26.73;;;;;;;;;;5055342;28;20271;-56
2024/03/11 00:15:43;;;;;;;51.70;26.27;;;;;;;;;;5059112;28;20258;-56
2024/03/11 00:18:09;;;;;;;50.93;25.97;;;;;;;;;;5051026;28;20274;-56
2024/03/11 00:20:35;;;;;;;48.28;24.27;;;;;;;;;;5065381;28;20273;-59
2024/03/11 00:23:01;;;;;;;;;;;;;;;;;;5060615;28;20029;-55
2024/03/11 00:25:27;;;;;;;48.63;24.77;;;;;;;;;;5053868;28;19909;-57
2024/03/11 00:27:52;;;;;;;54.43;24.77;;;;;;;;;;5060172;28;20283;-55
2024/03/11 00:30:18;;;;;;;55.25;25.58;;;;;;;;;;5051496;28;20030;-54
2024/03/11 00:32:46;;;;;;;56.65;26.77;;;;;;;;;;5056586;28;20044;-56
2024/03/11 00:35:13;;;;;;;53.67;27.83;;;;;;;;;;5068540;28;20029;-57
2024/03/11 00:37:39;;;;;;;62.13;27.77;;;;;;;;;;5072506;28;20365;-56
2024/03/11 00:40:08;;;;;;;52.60;26.83;;;;;;;;;;5061586;28;20278;-57
2024/03/11 00:42:34;;;;;;;57.20;27.50;;;;;;;;;;5056275;28;20018;-56
2024/03/11 00:45:00;;;;;;;52.20;25.47;;;;;;;;;;5056308;28;20317;-57
2024/03/11 00:47:26;;;;;;;55.30;27.47;;;;;;;;;;5062599;28;20030;-57
2024/03/11 00:49:51;;;;;;;45.90;24.10;;;;;;;;;;5055985;28;20034;-57
2024/03/11 00:52:17;;;;;;;50.72;25.27;;;;;;;;;;5056175;28;20034;-56
2024/03/11 00:54:42;;;;;;;52.93;24.90;;;;;;;;;;5056187;28;20057;-57
2024/03/11 00:57:08;;;;;;;51.00;24.63;;;;;;;;;;5059975;28;20033;-57
2024/03/11 00:59:35;;;;;;;54.27;26.37;;;;;;;;;;5056019;28;20052;-57
2024/03/11 01:02:00;;;;;;;49.23;25.07;;;;;;;;;;5056123;28;20829;-56
2024/03/11 01:04:27;;;;;;;48.53;26.33;;;;;;;;;;5057615;28;20281;-58
2024/03/11 01:06:52;;;;;;;51.08;25.40;;;;;;;;;;5074116;28;20028;-55
2024/03/11 01:09:20;;;;;;;54.73;25.40;;;;;;;;;;5056827;28;20029;-54
2024/03/11 01:11:48;;;;;;;49.27;25.03;;;;;;;;;;5058783;28;20025;-57
2024/03/11 01:14:14;;;;;;;52.00;26.50;;;;;;;;;;5055045;28;20271;-57
2024/03/11 01:16:40;;;;;;;60.73;28.43;;;;;;;;;;5063105;28;20293;-53
2024/03/11 01:19:07;;;;;;;53.05;26.65;;;;;;;;;;5061951;28;20033;-55
2024/03/11 01:21:35;;;;;;;64.68;26.60;;;;;;;;;;5055688;28;20041;-55
2024/03/11 01:24:00;;;;;;;55.23;25.67;;;;;;;;;;5055426;28;20033;-54
2024/03/11 01:26:26;;;;;;;56.47;27.25;;;;;;;;;;5060677;28;20258;-56
2024/03/11 01:28:52;;;;;;;55.47;25.83;;;;;;;;;;5059701;28;20037;-56
2024/03/11 01:31:17;;;;;;;58.97;26.00;;;;;;;;;;5055736;28;20056;-56
2024/03/11 01:33:44;;;;;;;51.27;26.10;;;;;;;;;;5055143;28;20350;-53
2024/03/11 01:36:09;;;;;;;51.35;26.35;;;;;;;;;;5058229;28;20064;-57
2024/03/11 01:38:34;;;;;;;59.07;28.00;;;;;;;;;;5061661;28;20025;-53
2024/03/11 01:41:01;;;;;;;54.50;26.13;;;;;;;;;;5059478;28;20096;-54
2024/03/11 01:43:26;;;;;;;54.67;26.27;;;;;;;;;;5058474;28;20083;-56
2024/03/11 01:45:53;;;;;;;56.23;27.87;;;;;;;;;;5055426;28;20258;-57
2024/03/11 01:48:19;;;;;;;56.83;26.27;;;;;;;;;;5059000;28;20037;-55
2024/03/11 01:50:44;;;;;;;53.27;26.83;;;;;;;;;;5055146;28;20287;-57
2024/03/11 01:53:10;;;;;;;48.33;25.83;;;;;;;;;;5064617;28;20264;-57
2024/03/11 01:55:37;;;;;;;54.90;26.77;;;;;;;;;;5055012;28;20270;-54
2024/03/11 01:58:03;;;;;;;50.13;25.70;;;;;;;;;;5056176;28;20036;-58
2024/03/11 02:00:28;;;;;;;52.67;27.37;;;;;;;;;;5055384;28;20266;-57
2024/03/11 02:02:54;;;;;;;58.55;28.42;;;;;;;;;;5062837;28;20029;-55
2024/03/11 02:05:21;;;;;;;54.80;27.80;;;;;;;;;;5054617;28;20052;-57
2024/03/11 02:07:52;;;;;;;55.17;27.37;;;;;;;;;;5059106;28;20096;-54
2024/03/11 02:10:19;;;;;;;55.37;27.87;;;;;;;;;;5055130;28;20274;-57
2024/03/11 02:12:46;;;;;;;54.40;28.00;;;;;;;;;;5060257;28;20259;-57
2024/03/11 02:15:12;;;;;;;50.08;25.90;;;;;;;;;;5054731;28;20270;-57
2024/03/11 02:17:38;;;;;;;56.35;27.40;;;;;;;;;;5064705;28;20140;-53
2024/03/11 02:20:08;;;;;;;56.20;28.03;;;;;;;;;;5054650;28;20101;-56
2024/03/11 02:22:34;;;;;;;53.63;27.10;;;;;;;;;;5054402;28;20265;-57
2024/03/11 02:24:59;;;;;;;53.15;27.15;;;;;;;;;;5054395;28;20290;-56
2024/03/11 02:27:26;;;;;;;51.87;25.07;;;;;;;;;;5062748;28;20052;-55
2024/03/11 02:29:52;;;;;;;56.93;27.00;;;;;;;;;;5054731;28;20259;-57
2024/03/11 02:32:17;;;;;;;54.00;26.50;;;;;;;;;;5054415;28;20021;-56
2024/03/11 02:34:43;;;;;;;54.53;27.10;;;;;;;;;;5054257;28;20030;-57
2024/03/11 02:37:08;;;;;;;54.87;26.13;;;;;;;;;;5059404;28;20072;-54
2024/03/11 02:39:34;;;;;;;53.00;26.13;;;;;;;;;;5059037;28;20278;-58
2024/03/11 02:41:59;;;;;;;61.67;27.00;;;;;;;;;;5056483;28;20286;-54
2024/03/11 02:44:25;;;;;;;58.70;29.30;;;;;;;;;;5059917;28;20029;-56
2024/03/11 02:46:51;;;;;;;57.23;26.43;;;;;;;;;;5058324;28;20051;-54
2024/03/11 02:49:16;;;;;;;60.72;28.15;;;;;;;;;;5055389;28;20025;-56
2024/03/11 02:51:43;;;;;;;57.37;27.57;;;;;;;;;;5056396;28;20049;-57
2024/03/11 02:54:11;;;;;;;58.13;27.55;;;;;;;;;;5052756;28;20278;-51
2024/03/11 02:56:37;;;;;;;66.50;29.73;;;;;;;;;;5055078;28;20032;-56
2024/03/11 02:59:02;;;;;;;65.00;29.90;;;;;;;;;;5054281;28;20263;-58
2024/03/11 03:01:28;;;;;;;59.30;28.43;;;;;;;;;;5054077;28;20294;-56
2024/03/11 03:03:53;;;;;;;64.00;29.97;;;;;;;;;;5054006;28;20342;-56
2024/03/11 03:06:19;;;;;;;58.65;29.15;;;;;;;;;;5055004;28;20033;-54
2024/03/11 03:08:44;;;;;;;56.27;28.47;;;;;;;;;;5062426;28;20033;-56
2024/03/11 03:11:10;;;;;;;64.97;30.73;;;;;;;;;;5062959;28;20021;-56
2024/03/11 03:13:35;;;;;;;64.57;30.75;;;;;;;;;;5055175;28;20102;-54
2024/03/11 03:16:00;;;;;;;64.37;30.00;;;;;;;;;;5053805;28;20116;-56
2024/03/11 03:18:26;;;;;;;65.82;32.03;;;;;;;;;;5060625;28;20038;-56
2024/03/11 03:20:52;;;;;;;66.57;31.80;;;;;;;;;;5058532;28;20029;-57
2024/03/11 03:23:17;;;;;;;66.37;30.97;;;;;;;;;;5062882;28;20119;-55
2024/03/11 03:25:43;;;;;;;66.97;31.27;;;;;;;;;;5055317;28;20263;-56
2024/03/11 03:28:08;;;;;;;63.03;31.73;;;;;;;;;;5053909;28;20267;-57
2024/03/11 03:30:34;;;;;;;68.55;31.30;;;;;;;;;;5053764;28;20089;-57
2024/03/11 03:32:59;;;;;;;70.37;32.77;;;;;;;;;;5060732;28;20048;-55
2024/03/11 03:35:25;;;;;;;67.45;31.58;;;;;;;;;;5056991;28;20044;-57
2024/03/11 03:37:51;;;;;;;71.28;33.45;;;;;;;;;;5055711;28;20045;-56
2024/03/11 03:40:17;;;;;;;68.63;31.10;;;;;;;;;;5053843;28;20115;-55
2024/03/11 03:42:43;;;;;;;74.20;31.92;;;;;;;;;;5053864;28;20034;-56
2024/03/11 03:45:09;;;;;;;70.32;31.88;;;;;;;;;;5057674;28;20105;-55
2024/03/11 03:47:35;;;;;;;65.72;31.90;;;;;;;;;;5063071;28;20021;-58
2024/03/11 03:50:00;;;;;;;69.07;32.10;;;;;;;;;;5059615;28;20044;-53
2024/03/11 03:52:25;;;;;;;71.85;33.58;;;;;;;;;;5066721;28;20039;-54
2024/03/11 03:54:51;;;;;;;69.83;32.50;;;;;;;;;;5059464;28;20042;-54
2024/03/11 03:57:17;;;;;;;77.15;33.08;;;;;;;;;;5061849;28;20289;-56
2024/03/11 03:59:42;;;;;;;74.87;33.90;;;;;;;;;;5057100;28;20037;-56
2024/03/11 04:02:08;;;;;;;70.75;34.10;;;;;;;;;;5062623;28;20096;-55
2024/03/11 04:04:37;;;;;;;84.25;35.92;;;;;;;;;;5056988;28;20034;-54
2024/03/11 04:07:03;;;;;;;78.67;35.63;;;;;;;;;;5051704;28;20028;-57
2024/03/11 04:09:28;;;;;;;73.17;34.07;;;;;;;;;;5060545;28;20262;-55
2024/03/11 04:11:54;;;;;;;78.70;35.43;;;;;;;;;;5057358;28;20274;-53
2024/03/11 04:14:21;;;;;;;67.78;33.28;;;;;;;;;;5066685;28;20045;-54
2024/03/11 04:16:46;;;;;;;77.60;34.77;;;;;;;;;;5058920;28;20038;-55
2024/03/11 04:19:12;;;;;;;81.40;36.53;;;;;;;;;;5071913;28;20269;-55
2024/03/11 04:21:37;;;;;;;72.40;34.73;;;;;;;;;;5056208;28;20274;-55
2024/03/11 04:24:05;;;;;;;82.22;35.58;;;;;;;;;;5056683;28;20042;-57
2024/03/11 04:26:31;;;;;;;81.73;36.13;;;;;;;;;;5056856;28;20036;-56
2024/03/11 04:28:58;;;;;;;77.82;34.13;;;;;;;;;;5064967;28;20294;-55
2024/03/11 04:31:24;;;;;;;83.30;39.13;;;;;;;;;;5060132;28;20032;-55
2024/03/11 04:33:50;;;;;;;76.83;36.33;;;;;;;;;;5062914;28;20267;-56
2024/03/11 04:36:15;;;;;;;;;;;;;;;;;;5056603;28;20056;-57
2024/03/11 04:38:41;;;;;;;78.22;36.85;;;;;;;;;;5056784;28;19909;-58
2024/03/11 04:41:08;;;;;;;83.40;36.80;;;;;;;;;;5056768;28;20056;-53
2024/03/11 04:43:36;;;;;;;83.60;36.10;;;;;;;;;;5056300;28;20041;-56
2024/03/11 04:46:02;;;;;;;84.60;38.23;;;;;;;;;;5056345;28;20285;-56
2024/03/11 04:48:28;;;;;;;77.30;36.25;;;;;;;;;;5068102;28;20258;-56
2024/03/11 04:50:54;;;;;;;82.17;38.37;;;;;;;;;;5056416;28;20060;-55
2024/03/11 04:53:19;;;;;;;88.77;38.53;;;;;;;;;;5055994;28;20331;-53
2024/03/11 04:55:46;;;;;;;86.22;39.30;;;;;;;;;;5055986;28;20037;-56
2024/03/11 04:58:12;;;;;;;86.43;37.87;;;;;;;;;;5065120;28;20026;-57
2024/03/11 05:00:38;;;;;;;91.20;39.70;;;;;;;;;;5055959;28;20275;-57
2024/03/11 05:03:04;;;;;;;97.90;40.53;;;;;;;;;;5064106;28;20255;-56
2024/03/11 05:05:36;;;;;;;98.97;40.63;;;;;;;;;;5062199;28;20040;-55
2024/03/11 05:08:03;;;;;;;87.27;40.87;;;;;;;;;;5060681;28;20037;-57
2024/03/11 05:10:30;;;;;;;88.97;40.28;;;;;;;;;;5063298;28;20263;-56
2024/03/11 05:12:56;;;;;;;93.70;40.13;;;;;;;;;;5055890;28;20021;-57
2024/03/11 05:15:22;;;;;;;91.45;39.72;;;;;;;;;;5059640;28;20068;-56
2024/03/11 05:17:47;;;;;;;89.18;39.33;;;;;;;;;;5057755;28;20033;-55
2024/03/11 05:20:16;;;;;;;92.45;40.47;;;;;;;;;;5059670;28;20041;-54
2024/03/11 05:22:41;;;;;;;90.38;41.42;;;;;;;;;;5055573;28;20036;-57
2024/03/11 05:25:20;;;;;;;99.22;40.65;;;;;;;;;;5055668;28;20033;-55
2024/03/11 05:27:52;;;;;;;100.40;40.80;;;;;;;;;;5053649;28;20030;-57
2024/03/11 05:30:18;;;;;;;96.90;41.97;;;;;;;;;;5055934;28;20266;-55
2024/03/11 05:32:43;;;;;;;94.10;40.80;;;;;;;;;;5045808;28;20322;-58
2024/03/11 05:35:09;;;;;;;94.15;41.88;;;;;;;;;;5058440;28;20266;-57
2024/03/11 05:37:35;;;;;;;94.33;40.43;;;;;;;;;;5063238;28;20101;-56
2024/03/11 05:40:01;;;;;;;95.93;39.73;;;;;;;;;;5055686;28;20064;-56
2024/03/11 05:42:27;;;;;;;97.82;41.17;;;;;;;;;;5056399;28;20030;-55
2024/03/11 05:44:55;;;;;;;123.80;45.63;;;;;;;;;;5064806;28;20044;-58
2024/03/11 05:47:24;;;;;;;103.10;43.38;;;;;;;;;;5061290;28;20270;-56
2024/03/11 05:49:50;;;;;;;104.45;42.30;;;;;;;;;;5055433;28;20021;-56
2024/03/11 05:52:15;;;;;;;103.53;42.73;;;;;;;;;;5054858;28;20060;-53
2024/03/11 05:54:50;;;;;;;95.90;42.40;;;;;;;;;;5063415;28;20274;-57
2024/03/11 05:57:30;;;;;;;100.78;42.45;;;;;;;;;;5061999;28;20068;-55
2024/03/11 05:59:56;;;;;;;105.78;45.42;;;;;;;;;;5063025;28;20116;-58
2024/03/11 06:02:22;;;;;;;106.85;42.50;;;;;;;;;;5054879;28;20104;-55
2024/03/11 06:04:47;;;;;;;108.90;45.63;;;;;;;;;;5061950;28;20033;-56
2024/03/11 06:07:16;;;;;;;113.03;46.70;;;;;;;;;;5055871;28;20085;-54
2024/03/11 06:09:42;;;;;;;106.50;42.65;;;;;;;;;;5055000;28;20056;-57
2024/03/11 06:12:07;;;;;;;110.57;43.77;;;;;;;;;;5054160;28;20029;-56
2024/03/11 06:14:33;;;;;;;107.03;44.67;;;;;;;;;;5055114;28;20386;-60
2024/03/11 06:16:58;;;;;;;110.07;43.63;;;;;;;;;;5052959;28;20075;-58
2024/03/11 06:19:24;;;;;;;110.82;46.90;;;;;;;;;;5057692;28;20052;-60
2024/03/11 06:21:49;;;;;;;101.50;44.13;;;;;;;;;;5055875;28;20037;-57
2024/03/11 06:24:16;;;;;;;;;;;;;;;;;;5057031;28;20040;-58
2024/03/11 06:26:45;;;;;;;110.30;44.72;;;;;;;;;;5055293;28;19928;-59
2024/03/11 06:29:10;;;;;;;111.40;44.95;;;;;;;;;;5066046;28;20044;-58
2024/03/11 06:31:38;;;;;;;108.90;46.23;;;;;;;;;;5054567;28;20021;-58
2024/03/11 06:34:06;;;;;;;109.93;44.55;;;;;;;;;;5054511;28;20033;-58
2024/03/11 06:36:32;;;;;;;110.80;47.53;;;;;;;;;;5054681;28;20088;-57
2024/03/11 06:38:58;;;;;;;114.70;47.72;;;;;;;;;;5062723;28;20285;-58
2024/03/11 06:41:23;;;;;;;115.32;46.85;;;;;;;;;;5054231;28;20041;-57
2024/03/11 06:43:49;;;;;;;111.27;46.87;;;;;;;;;;5057085;28;20059;-57
2024/03/11 06:46:15;;;;;;;114.47;46.22;;;;;;;;;;5061581;28;20040;-58
2024/03/11 06:48:41;;;;;;;112.55;46.45;;;;;;;;;;5054628;28;20068;-58
2024/03/11 06:51:08;;;;;;;107.45;46.63;;;;;;;;;;5053196;28;20044;-57
2024/03/11 06:53:33;;;;;;;108.97;47.47;;;;;;;;;;5054150;28;20033;-59
2024/03/11 06:56:00;;;;;;;115.95;46.58;;;;;;;;;;5056183;28;20052;-57
2024/03/11 06:58:26;;;;;;;110.17;46.60;;;;;;;;;;5056039;28;20033;-56
2024/03/11 07:00:52;;;;;;;108.32;46.97;;;;;;;;;;5047983;28;20298;-58
2024/03/11 07:03:17;;;;;;;122.37;47.40;;;;;;;;;;5045112;28;20037;-56
2024/03/11 07:05:43;;;;;;;110.07;46.67;;;;;;;;;;5051892;28;20263;-59
2024/03/11 07:08:09;;;;;;;;;;;;;;;;;;5055421;28;20083;-56
2024/03/11 07:10:35;;;;;;;111.53;45.53;;;;;;;;;;5054079;28;19908;-57
2024/03/11 07:13:01;;;;;;;104.30;45.23;;;;;;;;;;5054109;28;20061;-58
2024/03/11 07:15:28;;;;;;;111.37;47.30;;;;;;;;;;5056748;28;20026;-58
2024/03/11 07:17:54;;;;;;;114.47;45.47;;;;;;;;;;5054472;28;20273;-56
2024/03/11 07:20:23;;;;;;;114.67;48.10;;;;;;;;;;5055403;28;20037;-57
2024/03/11 07:22:49;;;;;;;110.35;46.13;;;;;;;;;;5045637;28;20282;-56
2024/03/11 07:25:17;;;;;;;113.95;47.85;;;;;;;;;;5054473;28;20052;-57
2024/03/11 07:27:53;;;;;;;127.47;45.90;;;;;;;;;;5053446;28;20059;-56
2024/03/11 07:30:22;;;;;;;104.03;46.57;;;;;;;;;;5057393;28;20246;-57
2024/03/11 07:33:07;;;;;;;111.63;47.37;;;;;;;;;;5068580;28;20265;-56
2024/03/11 07:35:37;;;;;;;119.45;46.42;;;;;;;;;;5057332;28;20305;-58
2024/03/11 07:38:05;;;;;;;119.47;47.03;;;;;;;;;;5051564;28;20057;-59
2024/03/11 07:40:30;;;;;;;116.35;46.17;;;;;;;;;;5055616;28;20026;-58
2024/03/11 07:42:57;;;;;;;;;;;;;;;;;;5047909;28;20040;-56
2024/03/11 07:45:23;;;;;;;114.85;45.08;;;;;;;;;;5056520;28;19959;-58
2024/03/11 07:47:48;;;;;;;113.73;46.07;;;;;;;;;;5045538;28;20025;-56
2024/03/11 07:50:14;;;;;;;116.33;48.07;;;;;;;;;;5055653;28;20289;-56
2024/03/11 07:52:39;;;;;;;122.00;49.10;;;;;;;;;;5056267;28;20259;-58
2024/03/11 07:55:06;;;;;;;121.90;48.22;;;;;;;;;;5056095;28;20029;-58
2024/03/11 07:57:32;;;;;;;115.20;45.43;;;;;;;;;;5046584;28;20049;-57
2024/03/11 07:59:57;;;;;;;120.17;49.73;;;;;;;;;;5057875;28;20282;-55
2024/03/11 08:02:23;;;;;;;114.13;46.70;;;;;;;;;;5053918;28;20068;-57
2024/03/11 08:04:49;;;;;;;120.03;48.80;;;;;;;;;;5059787;28;20037;-56
2024/03/11 08:07:15;;;;;;;117.72;47.38;;;;;;;;;;5052992;28;20038;-60
2024/03/11 08:09:42;;;;;;;110.00;49.35;;;;;;;;;;5062903;28;20033;-58
2024/03/11 08:12:08;;;;;;;114.47;49.03;;;;;;;;;;5054315;28;20038;-56
2024/03/11 08:14:34;;;;;;;123.22;50.90;;;;;;;;;;5058131;28;20097;-56
2024/03/11 08:17:00;;;;;;;117.30;48.37;;;;;;;;;;5053641;28;20045;-53
2024/03/11 08:19:26;;;;;;;113.03;49.28;;;;;;;;;;5059466;28;20030;-55
2024/03/11 08:21:51;;;;;;;116.68;46.15;;;;;;;;;;5052556;28;20048;-57
2024/03/11 08:24:16;;;;;;;107.63;47.07;;;;;;;;;;5054128;28;20034;-58
2024/03/11 08:26:42;;;;;;;118.67;46.87;;;;;;;;;;5055934;28;20277;-58
2024/03/11 08:29:09;;;;;;;105.32;45.10;;;;;;;;;;5060381;28;20068;-56
2024/03/11 08:31:35;;;;;;;106.97;46.97;;;;;;;;;;5056370;28;20053;-57
2024/03/11 08:34:01;;;;;;;111.80;47.07;;;;;;;;;;5056720;28;20277;-58
2024/03/11 08:36:27;;;;;;;116.07;47.25;;;;;;;;;;5058077;28;20093;-57
2024/03/11 08:38:53;;;;;;;107.17;46.47;;;;;;;;;;5055825;28;20037;-56
2024/03/11 08:41:19;;;;;;;105.63;46.37;;;;;;;;;;5053246;28;20277;-57
2024/03/11 08:43:45;;;;;;;102.70;44.45;;;;;;;;;;5040665;28;20294;-58
2024/03/11 08:46:11;;;;;;;107.90;45.87;;;;;;;;;;5048418;28;20089;-57
2024/03/11 08:48:37;;;;;;;;;;;;;;;;;;5053802;28;20052;-57
2024/03/11 08:51:03;;;;;;;104.27;43.60;;;;;;;;;;5053065;28;19968;-54
2024/03/11 08:53:29;;;;;;;105.10;44.53;;;;;;;;;;5055956;28;20033;-58
2024/03/11 08:55:56;;;;;;;113.03;46.10;;;;;;;;;;5055855;28;20270;-55
2024/03/11 08:58:22;;;;;;;105.17;45.40;;;;;;;;;;5043961;28;20361;-58
2024/03/11 09:00:51;;;;;;;106.35;44.50;;;;;;;;;;5061273;28;20277;-56
2024/03/11 09:03:17;;;;;;;99.17;42.07;;;;;;;;;;5044048;28;20043;-55
2024/03/11 09:05:43;;;;;;;98.38;44.22;;;;;;;;;;5054387;28;20263;-56
2024/03/11 09:08:10;;;;;;;106.78;44.88;;;;;;;;;;5049200;28;20096;-56
2024/03/11 09:10:36;;;;;;;102.33;44.00;;;;;;;;;;5056533;28;20021;-57
2024/03/11 09:13:02;;;;;;;96.13;39.17;;;;;;;;;;5055907;28;20346;-56
2024/03/11 09:15:28;;;;;;;110.40;45.63;;;;;;;;;;5051034;28;20033;-56
2024/03/11 09:17:54;;;;;;;107.17;44.17;;;;;;;;;;5054351;28;20323;-56
2024/03/11 09:20:21;;;;;;;97.60;41.08;;;;;;;;;;5061428;28;20618;-56
2024/03/11 09:22:51;;;;;;;98.07;43.10;;;;;;;;;;5068335;28;20029;-57
2024/03/11 09:25:23;;;;;;;90.97;38.83;;;;;;;;;;5051229;28;20317;-55
2024/03/11 09:27:53;;;;;;;72.27;33.43;;;;;;;;;;5055088;28;20768;-55
2024/03/11 09:30:19;;;;;;;83.53;39.23;;;;;;;;;;5059125;28;20269;-57
2024/03/11 09:32:46;;;;;;;91.32;39.67;;;;;;;;;;5049625;28;20271;-57
2024/03/11 09:35:16;;;;;;;96.20;40.42;;;;;;;;;;5055260;28;20040;-57
2024/03/11 09:37:44;;;;;;;85.23;39.10;;;;;;;;;;5055557;28;20049;-54
2024/03/11 09:40:10;;;;;;;86.13;40.93;;;;;;;;;;5053187;28;20278;-58
2024/03/11 09:42:36;;;;;;;90.05;39.88;;;;;;;;;;5056688;28;20263;-57
2024/03/11 09:45:06;;;;;;;84.43;38.43;;;;;;;;;;5054681;28;20052;-54
2024/03/11 09:47:32;;;;;;;77.70;33.73;;;;;;;;;;5053657;28;20262;-57
2024/03/11 09:49:57;;;;;;;74.75;34.42;;;;;;;;;;5052952;28;20289;-55
2024/03/11 09:52:24;;;;;;;67.70;32.93;;;;;;;;;;5054654;28;20033;-56
2024/03/11 09:54:51;;;;;;;68.43;32.30;;;;;;;;;;5054424;28;20270;-58
2024/03/11 09:57:18;;;;;;;73.70;32.50;;;;;;;;;;5054752;28;20271;-58
2024/03/11 09:59:46;;;;;;;59.07;27.60;;;;;;;;;;5050454;28;20029;-59
2024/03/11 10:02:15;;;;;;;62.87;30.27;;;;;;;;;;5051096;28;20267;-58
2024/03/11 10:04:40;;;;;;;71.50;31.63;;;;;;;;;;5052901;28;20282;-57
2024/03/11 10:07:08;;;;;;;74.77;32.33;;;;;;;;;;5051023;28;20263;-57
2024/03/11 10:09:44;;;;;;;69.97;31.10;;;;;;;;;;5060607;28;20033;-58
2024/03/11 10:12:10;;;;;;;69.30;31.90;;;;;;;;;;5053901;28;20267;-56
2024/03/11 10:14:38;;;;;;;65.03;30.85;;;;;;;;;;5053791;28;20273;-56
2024/03/11 10:17:20;;;;;;;66.65;30.70;;;;;;;;;;5047614;28;20041;-58
2024/03/11 10:19:58;;;;;;;73.30;33.10;;;;;;;;;;5060626;28;20032;-57
2024/03/11 10:22:33;;;;;;;68.87;32.80;;;;;;;;;;5054512;28;20273;-58
2024/03/11 10:25:00;;;;;;;73.77;33.43;;;;;;;;;;5053147;28;20304;-56
2024/03/11 10:27:39;;;;;;;67.70;33.13;;;;;;;;;;5053945;28;20278;-58
2024/03/11 10:30:19;;;;;;;72.97;33.50;;;;;;;;;;5059205;28;20295;-57
2024/03/11 10:32:45;;;;;;;79.57;34.60;;;;;;;;;;5054366;28;20017;-59
2024/03/11 10:35:20;;;;;;;72.03;34.25;;;;;;;;;;5054580;28;20262;-57
2024/03/11 10:37:46;;;;;;;81.73;34.83;;;;;;;;;;5044547;28;20056;-58
2024/03/11 10:40:17;;;;;;;82.13;35.77;;;;;;;;;;5053692;28;20259;-59
2024/03/11 10:42:49;;;;;;;75.63;33.67;;;;;;;;;;5054505;28;20285;-57
2024/03/11 10:45:28;;;;;;;82.73;36.57;;;;;;;;;;5053575;28;20275;-59
2024/03/11 10:47:54;;;;;;;90.17;38.90;;;;;;;;;;5039921;28;20298;-58
2024/03/11 10:50:20;;;;;;;95.50;39.90;;;;;;;;;;5055157;28;20286;-58
2024/03/11 10:52:48;;;;;;;91.47;40.15;;;;;;;;;;5050245;28;20045;-54
2024/03/11 10:55:14;;;;;;;102.57;42.97;;;;;;;;;;5056974;28;20075;-57
2024/03/11 10:57:43;;;;;;;96.10;40.72;;;;;;;;;;5058443;28;20263;-58
2024/03/11 11:02:44;;;;;;;94.87;41.40;;;;;;;;;;5053801;28;20270;-55
2024/03/11 11:05:09;;;;;;;;;;;;;;;;;;5057643;28;20266;-57
2024/03/11 11:07:35;;;;;;;100.60;40.50;;;;;;;;;;5056930;28;19924;-56
2024/03/11 11:10:04;;;;;;;99.30;40.45;;;;;;;;;;5063707;28;20037;-58
2024/03/11 11:12:30;;;;;;;96.53;41.13;;;;;;;;;;5056753;28;20049;-58
2024/03/11 11:15:02;;;;;;;102.75;41.55;;;;;;;;;;5053784;28;20259;-57
2024/03/11 11:17:29;;;;;;;106.97;43.10;;;;;;;;;;5053875;28;20024;-56
2024/03/11 11:19:57;;;;;;;113.03;43.07;;;;;;;;;;5057563;28;20251;-57
2024/03/11 11:22:25;;;;;;;106.40;41.97;;;;;;;;;;5060147;28;20293;-58
2024/03/11 11:24:51;;;;;;;107.67;43.83;;;;;;;;;;5053678;28;20034;-59
2024/03/11 11:27:23;;;;;;;106.82;43.15;;;;;;;;;;5040610;28;20301;-57
2024/03/11 11:29:49;;;;;;;101.20;44.10;;;;;;;;;;5058463;28;20040;-57
2024/03/11 11:32:18;;;;;;;91.90;40.20;;;;;;;;;;5056260;28;20259;-57
2024/03/11 11:34:47;;;;;;;103.77;41.90;;;;;;;;;;5053533;28;20041;-57
2024/03/11 11:37:19;;;;;;;95.73;41.40;;;;;;;;;;5051825;28;20258;-56
2024/03/11 11:39:44;;;;;;;102.87;42.23;;;;;;;;;;5066346;28;20262;-57
2024/03/11 11:42:40;;;;;;;103.43;42.63;;;;;;;;;;5058976;28;20354;-54
2024/03/11 11:45:07;;;;;;;83.87;33.83;;;;;;;;;;5045175;28;20342;-55
2024/03/11 11:47:32;;;;;;;;;;;;;;;;;;5064556;28;20256;-58
2024/03/11 11:49:59;;;;;;;102.28;39.38;;;;;;;;;;5054738;28;19929;-57
2024/03/11 11:52:24;;;;;;;106.63;41.85;;;;;;;;;;5053190;28;20040;-58
2024/03/11 11:54:53;;;;;;;108.22;41.72;;;;;;;;;;5053121;28;20041;-59
2024/03/11 11:57:21;;;;;;;113.30;43.67;;;;;;;;;;5053221;28;20044;-58
2024/03/11 11:59:55;;;;;;;92.33;37.67;;;;;;;;;;5053582;28;20263;-55
2024/03/11 12:02:22;;;;;;;109.43;44.10;;;;;;;;;;5062613;28;20295;-57
2024/03/11 12:04:50;;;;;;;103.43;40.60;;;;;;;;;;5043594;28;20282;-55
2024/03/11 12:07:22;;;;;;;111.97;42.70;;;;;;;;;;5053239;28;20265;-57
2024/03/11 12:09:59;;;;;;;119.47;44.60;;;;;;;;;;5054211;28;20025;-54
2024/03/11 12:12:48;;;;;;;105.45;41.15;;;;;;;;;;5065002;28;20269;-56
2024/03/11 12:15:17;;;;;;;118.57;42.03;;;;;;;;;;5047795;28;20037;-54
2024/03/11 12:17:49;;;;;;;81.17;33.73;;;;;;;;;;5055758;28;20310;-57
2024/03/11 12:20:30;;;;;;;98.97;41.50;;;;;;;;;;5069508;28;20286;-58
2024/03/11 12:22:57;;;;;;;93.60;38.17;;;;;;;;;;5049103;28;20271;-56
2024/03/11 12:25:24;;;;;;;102.97;42.07;;;;;;;;;;5056122;28;20279;-55
2024/03/11 12:27:51;;;;;;;99.68;40.95;;;;;;;;;;5056281;28;20271;-56
2024/03/11 12:30:24;;;;;;;95.40;38.33;;;;;;;;;;5056708;28;20093;-58
2024/03/11 12:32:56;;;;;;;86.37;36.53;;;;;;;;;;5056167;28;20262;-58
2024/03/11 12:35:25;;;;;;;105.37;41.70;;;;;;;;;;5055794;28;20248;-57
2024/03/11 12:37:51;;;;;;;104.37;41.97;;;;;;;;;;5048270;28;20314;-57
2024/03/11 12:40:19;;;;;;;110.57;42.77;;;;;;;;;;5059846;28;20274;-58
2024/03/11 12:42:48;;;;;;;100.60;39.37;;;;;;;;;;5063901;28;20047;-56
2024/03/11 12:45:17;;;;;;;89.93;36.30;;;;;;;;;;5058741;28;20262;-58
2024/03/11 12:47:43;;;;;;;85.17;36.03;;;;;;;;;;5064333;28;20271;-56
2024/03/11 12:50:13;;;;;;;103.60;40.40;;;;;;;;;;5057399;28;20258;-58
2024/03/11 12:52:40;;;;;;;92.77;40.53;;;;;;;;;;5055155;28;20262;-57
2024/03/11 12:55:13;;;;;;;107.90;43.13;;;;;;;;;;5055178;28;20262;-57
2024/03/11 12:57:39;;;;;;;110.03;41.33;;;;;;;;;;5036603;28;20255;-56
2024/03/11 13:00:07;;;;;;;108.73;44.33;;;;;;;;;;5054690;28;20255;-59
2024/03/11 13:02:35;;;;;;;107.37;45.77;;;;;;;;;;5060346;28;20028;-58
2024/03/11 13:05:11;;;;;;;107.73;42.47;;;;;;;;;;5056416;28;20290;-59
2024/03/11 13:07:36;;;;;;;97.30;39.75;;;;;;;;;;5055514;28;20286;-56
2024/03/11 13:10:03;;;;;;;106.37;43.23;;;;;;;;;;5066038;28;20036;-57
2024/03/11 13:12:29;;;;;;;96.83;41.53;;;;;;;;;;5054808;28;20263;-57
2024/03/11 13:14:55;;;;;;;106.60;40.33;;;;;;;;;;5056065;28;20274;-57
2024/03/11 13:17:22;;;;;;;100.10;40.57;;;;;;;;;;5055605;28;20294;-59
2024/03/11 13:19:56;;;;;;;98.60;42.37;;;;;;;;;;5055465;28;20263;-54
2024/03/11 13:22:22;;;;;;;98.10;40.53;;;;;;;;;;5055339;28;20263;-56
2024/03/11 13:24:52;;;;;;;94.28;41.47;;;;;;;;;;5044329;28;20278;-56
2024/03/11 13:27:18;;;;;;;102.00;39.17;;;;;;;;;;5055432;28;20052;-59
2024/03/11 13:29:44;;;;;;;110.30;41.40;;;;;;;;;;5060239;28;20255;-59
2024/03/11 13:32:12;;;;;;;82.50;35.00;;;;;;;;;;5055058;28;20255;-58
2024/03/11 13:34:38;;;;;;;99.50;42.33;;;;;;;;;;5058178;28;20040;-58
2024/03/11 13:37:04;;;;;;;108.03;42.47;;;;;;;;;;5058241;28;20372;-55
2024/03/11 13:39:36;;;;;;;100.70;41.22;;;;;;;;;;5057835;28;20045;-56
2024/03/11 13:42:06;;;;;;;96.03;39.10;;;;;;;;;;5055099;28;20125;-57
2024/03/11 13:44:33;;;;;;;105.23;40.47;;;;;;;;;;5054863;28;20276;-57
2024/03/11 13:47:00;;;;;;;;;;;;;;;;;;5064351;28;20305;-56
2024/03/11 13:49:27;;;;;;;100.68;38.08;;;;;;;;;;5055161;28;19912;-58
2024/03/11 13:51:54;;;;;;;97.70;37.97;;;;;;;;;;5054647;28;20397;-59
2024/03/11 13:54:19;;;;;;;101.03;40.72;;;;;;;;;;5054730;28;20293;-59
2024/03/11 13:56:47;;;;;;;80.40;34.20;;;;;;;;;;5058723;28;20036;-58
2024/03/11 13:59:14;;;;;;;99.63;38.03;;;;;;;;;;5063796;28;20287;-55
2024/03/11 14:01:39;;;;;;;100.47;41.00;;;;;;;;;;5056119;28;20262;-58
2024/03/11 14:04:07;;;;;;;96.90;40.33;;;;;;;;;;5063861;28;20320;-57
2024/03/11 14:06:34;;;;;;;94.90;39.17;;;;;;;;;;5056037;28;20021;-59
2024/03/11 14:08:59;;;;;;;95.67;38.07;;;;;;;;;;5061521;28;20334;-58
2024/03/11 14:11:25;;;;;;;102.20;40.47;;;;;;;;;;5055030;28;20029;-59
2024/03/11 14:13:51;;;;;;;106.53;40.80;;;;;;;;;;5061247;28;20049;-58
2024/03/11 14:16:17;;;;;;;111.57;40.90;;;;;;;;;;5058082;28;20022;-55
2024/03/11 14:18:42;;;;;;;103.47;40.42;;;;;;;;;;5058833;28;20029;-58